createdAt,value
2024-02-12T00:00:45.154Z,7.20
2024-02-12T00:03:47.565Z,7.35
2024-02-12T00:06:49.720Z,9.80
2024-02-12T00:09:52.677Z,10.23
2024-02-12T00:12:54.813Z,10.75
2024-02-12T00:15:57.132Z,9.68
2024-02-12T00:18:59.320Z,7.63
2024-02-12T00:22:02.523Z,12.02
2024-02-12T00:25:04.970Z,15.90
2024-02-12T00:28:07.067Z,21.75
2024-02-12T00:31:09.176Z,28.92
2024-02-12T00:34:11.422Z,34.13
2024-02-12T00:37:14.383Z,46.10
2024-02-12T00:40:16.519Z,52.92
2024-02-12T00:43:18.932Z,73.55
2024-02-12T00:46:21.054Z,38.97
2024-02-12T00:49:23.315Z,57.22
2024-02-12T00:52:25.505Z,54.58
2024-02-12T00:55:27.596Z,48.33
2024-02-12T00:58:29.793Z,55.03
2024-02-12T01:01:31.948Z,77.40
2024-02-12T01:04:34.104Z,38.78
2024-02-12T01:07:40.316Z,29.60
2024-02-12T01:10:42.470Z,33.33
2024-02-12T01:13:44.639Z,34.03
2024-02-12T01:16:47.305Z,34.83
2024-02-12T01:19:49.810Z,37.80
2024-02-12T01:22:52.352Z,36.05
2024-02-12T01:25:54.670Z,59.42
2024-02-12T01:28:57.237Z,50.97
2024-02-12T01:31:59.470Z,42.55
2024-02-12T01:35:01.907Z,41.03
2024-02-12T01:38:04.229Z,76.03
2024-02-12T01:41:06.574Z,48.95
2024-02-12T01:44:08.938Z,56.00
2024-02-12T01:47:15.053Z,38.45
2024-02-12T01:50:23.482Z,37.47
2024-02-12T01:53:26.003Z,38.33
2024-02-12T01:56:30.578Z,40.17
2024-02-12T01:59:33.034Z,37.03
2024-02-12T02:02:35.279Z,38.80
2024-02-12T02:05:37.802Z,40.10
2024-02-12T02:08:41.295Z,40.00
2024-02-12T02:11:43.561Z,42.25
2024-02-12T02:14:47.263Z,44.20
2024-02-12T02:17:49.642Z,78.72
2024-02-12T02:20:55.151Z,66.20
2024-02-12T02:24:01.156Z,72.10
2024-02-12T02:27:03.415Z,90.55
2024-02-12T02:30:06.424Z,66.13
2024-02-12T02:33:08.862Z,53.15
2024-02-12T02:36:11.093Z,66.10
2024-02-12T02:39:13.436Z,55.30
2024-02-12T02:42:15.600Z,41.72
2024-02-12T02:45:18.184Z,38.85
2024-02-12T02:48:20.560Z,29.60
2024-02-12T02:51:26.835Z,30.52
2024-02-12T02:54:29.192Z,35.03
2024-02-12T02:57:31.443Z,34.88
2024-02-12T03:00:33.637Z,38.83
2024-02-12T03:03:36.020Z,44.22
2024-02-12T03:06:38.328Z,48.70
2024-02-12T03:09:40.665Z,48.13
2024-02-12T03:12:44.668Z,50.72
2024-02-12T03:15:47.402Z,49.85
2024-02-12T03:21:55.114Z,57.10
2024-02-12T03:24:57.310Z,55.53
2024-02-12T03:27:59.530Z,56.65
2024-02-12T03:31:02.190Z,55.83
2024-02-12T03:34:04.820Z,56.85
2024-02-12T03:37:09.603Z,56.58
2024-02-12T03:40:12.576Z,69.22
2024-02-12T03:43:14.876Z,82.88
2024-02-12T03:46:22.980Z,113.78
2024-02-12T03:49:25.533Z,90.30
2024-02-12T03:52:27.953Z,73.95
2024-02-12T03:55:30.526Z,127.22
2024-02-12T03:58:32.849Z,60.05
2024-02-12T04:01:34.971Z,59.65
2024-02-12T04:04:37.202Z,51.45
2024-02-12T04:07:41.020Z,54.67
2024-02-12T04:10:44.070Z,55.70
2024-02-12T04:13:46.225Z,52.53
2024-02-12T04:16:49.541Z,50.95
2024-02-12T04:19:51.713Z,54.53
2024-02-12T04:22:54.226Z,56.00
2024-02-12T04:25:56.525Z,56.75
2024-02-12T04:29:01.788Z,57.50
2024-02-12T04:32:04.171Z,59.13
2024-02-12T04:35:07.319Z,50.28
2024-02-12T04:38:09.546Z,51.25
2024-02-12T04:41:12.572Z,54.55
2024-02-12T04:47:17.009Z,57.10
2024-02-12T04:50:19.664Z,56.67
2024-02-12T04:53:21.784Z,54.35
2024-02-12T04:56:23.977Z,58.38
2024-02-12T04:59:26.340Z,64.47
2024-02-12T05:02:28.592Z,93.93
2024-02-12T05:05:30.793Z,61.22
2024-02-12T05:08:33.220Z,56.92
2024-02-12T05:11:35.525Z,59.67
2024-02-12T05:14:37.853Z,56.42
2024-02-12T05:17:40.300Z,57.70
2024-02-12T05:20:42.765Z,55.58
2024-02-12T05:23:45.000Z,53.88
2024-02-12T05:26:48.353Z,54.67
2024-02-12T05:29:50.479Z,52.95
2024-02-12T05:32:53.607Z,51.72
2024-02-12T05:35:55.726Z,52.95
2024-02-12T05:38:57.889Z,48.85
2024-02-12T05:41:59.967Z,41.75
2024-02-12T05:45:02.205Z,45.08
2024-02-12T05:48:04.723Z,42.35
2024-02-12T05:51:06.907Z,42.90
2024-02-12T05:54:09.500Z,40.95
2024-02-12T05:57:12.253Z,44.35
2024-02-12T06:00:14.798Z,39.00
2024-02-12T06:06:19.538Z,48.25
2024-02-12T06:09:21.839Z,49.65
2024-02-12T06:12:23.899Z,51.10
2024-02-12T06:15:26.162Z,63.55
2024-02-12T06:18:29.168Z,47.70
2024-02-12T06:21:31.407Z,41.72
2024-02-12T06:24:33.973Z,38.60
2024-02-12T06:27:36.304Z,40.08
2024-02-12T06:30:38.535Z,28.42
2024-02-12T06:33:40.769Z,25.08
2024-02-12T06:36:42.891Z,29.55
2024-02-12T06:39:45.015Z,20.40
2024-02-12T06:42:47.752Z,16.38
2024-02-12T06:48:52.166Z,42.42
2024-02-12T06:51:54.426Z,49.53
2024-02-12T06:54:56.540Z,47.67
2024-02-12T06:57:58.842Z,45.85
2024-02-12T07:01:01.131Z,48.25
2024-02-12T07:04:04.175Z,48.60
2024-02-12T07:07:14.718Z,63.03
2024-02-12T07:10:16.941Z,53.03
2024-02-12T07:13:19.194Z,54.10
2024-02-12T07:16:21.504Z,63.00
2024-02-12T07:19:23.978Z,57.20
2024-02-12T07:22:25.982Z,49.80
2024-02-12T07:25:28.046Z,43.22
2024-02-12T07:28:30.032Z,40.22
2024-02-12T07:31:32.083Z,35.78
2024-02-12T07:34:34.341Z,35.38
2024-02-12T07:37:38.333Z,35.13
2024-02-12T07:40:40.708Z,31.88
2024-02-12T07:43:42.632Z,33.30
2024-02-12T07:46:44.594Z,35.00
2024-02-12T07:49:46.566Z,35.85
2024-02-12T07:52:48.743Z,42.15
2024-02-12T07:55:50.689Z,45.72
2024-02-12T07:58:52.737Z,44.45
2024-02-12T08:01:54.950Z,41.30
2024-02-12T08:04:57.149Z,42.35
2024-02-12T08:08:03.461Z,46.70
2024-02-12T08:11:07.172Z,50.25
2024-02-12T08:14:09.271Z,49.13
2024-02-12T08:17:11.250Z,48.47
2024-02-12T08:20:13.425Z,48.60
2024-02-12T08:23:15.446Z,48.08
2024-02-12T08:26:17.552Z,45.22
2024-02-12T08:29:19.647Z,44.13
2024-02-12T08:32:21.733Z,41.67
2024-02-12T08:35:24.005Z,42.17
2024-02-12T08:38:26.136Z,39.05
2024-02-12T08:41:28.317Z,41.90
2024-02-12T08:44:30.525Z,43.28
2024-02-12T08:47:32.664Z,40.17
2024-02-12T08:53:40.916Z,42.70
2024-02-12T08:56:43.131Z,45.75
2024-02-12T08:59:45.733Z,45.22
2024-02-12T09:02:48.110Z,44.97
2024-02-12T09:05:50.281Z,37.90
2024-02-12T09:08:52.339Z,38.58
2024-02-12T09:11:54.583Z,36.28
2024-02-12T09:14:59.184Z,34.90
2024-02-12T09:18:01.404Z,39.15
2024-02-12T09:21:03.818Z,43.72
2024-02-12T09:24:06.245Z,45.38
2024-02-12T09:27:08.785Z,42.40
2024-02-12T09:30:11.532Z,42.75
2024-02-12T09:33:17.313Z,40.60
2024-02-12T09:36:19.472Z,44.83
2024-02-12T09:39:21.729Z,48.83
2024-02-12T09:42:27.172Z,52.47
2024-02-12T09:45:29.933Z,49.72
2024-02-12T09:48:32.623Z,45.05
2024-02-12T09:51:35.090Z,39.05
2024-02-12T09:54:39.935Z,40.97
2024-02-12T09:57:42.626Z,47.22
2024-02-12T10:00:46.185Z,38.03
2024-02-12T10:03:48.370Z,45.40
2024-02-12T10:06:57.302Z,47.47
2024-02-12T10:09:59.277Z,47.65
2024-02-12T10:13:01.362Z,50.88
2024-02-12T10:16:05.903Z,49.72
2024-02-12T10:19:07.921Z,50.15
2024-02-12T10:22:09.927Z,42.40
2024-02-12T10:25:11.916Z,50.17
2024-02-12T10:28:14.844Z,43.10
2024-02-12T10:31:16.981Z,49.75
2024-02-12T10:34:19.111Z,49.13
2024-02-12T10:37:25.681Z,50.85
2024-02-12T10:40:33.823Z,49.63
2024-02-12T10:43:38.258Z,53.38
2024-02-12T10:46:41.027Z,51.58
2024-02-12T10:49:43.081Z,49.38
2024-02-12T10:52:45.083Z,58.85
2024-02-12T10:55:51.034Z,59.03
2024-02-12T10:58:53.252Z,57.00
2024-02-12T11:01:55.248Z,58.45
2024-02-12T11:04:57.306Z,59.22
2024-02-12T11:08:08.819Z,54.00
2024-02-12T11:11:19.283Z,57.33
2024-02-12T11:14:34.059Z,57.40
2024-02-12T11:17:36.250Z,48.95
2024-02-12T11:20:47.933Z,52.67
2024-02-12T11:23:50.219Z,51.83
2024-02-12T11:26:54.132Z,53.80
2024-02-12T11:29:57.425Z,49.92
2024-02-12T11:32:59.619Z,51.20
2024-02-12T11:36:08.879Z,55.47
2024-02-12T11:39:11.401Z,55.60
2024-02-12T11:42:13.509Z,52.03
2024-02-12T11:45:17.193Z,44.53
2024-02-12T11:48:19.901Z,48.83
2024-02-12T12:03:18.420Z,41.75
2024-02-12T12:06:23.893Z,45.38
2024-02-12T12:09:26.053Z,50.33
2024-02-12T12:12:28.173Z,44.53
2024-02-12T12:15:30.646Z,46.33
2024-02-12T12:18:33.081Z,9.15
2024-02-12T12:21:36.021Z,42.78
2024-02-12T12:24:38.526Z,44.50
2024-02-12T12:27:41.134Z,44.28
2024-02-12T12:30:43.390Z,51.40
2024-02-12T12:33:45.490Z,53.00
2024-02-12T12:36:47.665Z,53.03
2024-02-12T12:39:49.927Z,52.13
2024-02-12T12:42:51.986Z,53.28
2024-02-12T12:45:56.647Z,54.17
2024-02-12T12:48:58.682Z,55.05
2024-02-12T12:52:00.797Z,58.05
2024-02-12T12:55:03.804Z,58.55
2024-02-12T12:58:05.784Z,60.47
2024-02-12T13:01:07.899Z,62.38
2024-02-12T13:04:09.947Z,61.85
2024-02-12T13:07:14.986Z,60.85
2024-02-12T13:10:17.430Z,58.80
2024-02-12T13:13:19.443Z,59.60
2024-02-12T13:16:21.472Z,54.35
2024-02-12T13:19:23.624Z,57.40
2024-02-12T13:22:25.615Z,56.42
2024-02-12T13:25:32.747Z,54.25
2024-02-12T13:28:34.800Z,52.10
2024-02-12T13:31:37.109Z,51.90
2024-02-12T13:37:41.691Z,59.35
2024-02-12T13:40:43.989Z,51.08
2024-02-12T13:43:46.107Z,52.00
2024-02-12T13:46:48.166Z,55.25
2024-02-12T13:49:50.210Z,54.30
2024-02-12T13:52:52.414Z,53.03
2024-02-12T13:55:54.384Z,51.10
2024-02-12T13:58:56.466Z,57.15
2024-02-12T14:02:03.624Z,48.33
2024-02-12T14:05:08.604Z,51.17
2024-02-12T14:08:10.778Z,56.17
2024-02-12T14:11:12.872Z,51.38
2024-02-12T14:14:14.922Z,49.85
2024-02-12T14:17:16.971Z,52.33
2024-02-12T14:20:20.931Z,48.85
2024-02-12T14:23:23.173Z,51.28
2024-02-12T14:26:25.317Z,49.22
2024-02-12T14:29:27.368Z,48.13
2024-02-12T14:32:40.056Z,46.33
2024-02-12T14:35:44.902Z,46.40
2024-02-12T14:38:47.748Z,48.90
2024-02-12T14:41:49.843Z,47.45
2024-02-12T14:44:53.789Z,48.10
2024-02-12T14:47:57.024Z,46.97
2024-02-12T14:50:59.376Z,47.03
2024-02-12T14:54:01.495Z,49.08
2024-02-12T14:57:04.556Z,45.20
2024-02-12T15:00:10.422Z,45.00
2024-02-12T15:03:12.520Z,45.95
2024-02-12T15:06:18.059Z,45.67
2024-02-12T15:09:20.166Z,47.60
2024-02-12T15:12:22.123Z,50.42
2024-02-12T15:15:24.289Z,50.28
2024-02-12T15:18:26.287Z,47.63
2024-02-12T15:21:28.419Z,48.03
2024-02-12T15:24:30.355Z,47.90
2024-02-12T15:27:32.463Z,49.92
2024-02-12T15:30:39.014Z,45.80
2024-02-12T15:33:42.152Z,47.95
2024-02-12T15:36:47.245Z,45.30
2024-02-12T15:40:00.805Z,44.65
2024-02-12T15:43:11.717Z,43.40
2024-02-12T15:46:14.446Z,43.97
2024-02-12T15:49:16.476Z,43.28
2024-02-12T15:52:18.811Z,46.55
2024-02-12T15:55:21.351Z,44.55
2024-02-12T15:58:23.396Z,47.08
2024-02-12T16:01:25.836Z,46.45
2024-02-12T16:04:27.865Z,43.75
2024-02-12T16:07:29.939Z,44.58
2024-02-12T16:10:38.208Z,41.58
2024-02-12T16:13:41.525Z,43.42
2024-02-12T16:16:45.651Z,43.45
2024-02-12T16:19:47.844Z,43.60
2024-02-12T16:22:55.526Z,41.97
2024-02-12T16:25:58.005Z,41.15
2024-02-12T16:29:00.184Z,43.90
2024-02-12T16:32:02.284Z,39.63
2024-02-12T16:35:04.989Z,41.50
2024-02-12T16:38:07.160Z,47.60
2024-02-12T16:41:09.795Z,49.50
2024-02-12T16:44:12.440Z,48.10
2024-02-12T16:47:14.643Z,48.40
2024-02-12T16:50:17.168Z,51.22
2024-02-12T16:53:19.742Z,50.88
2024-02-12T16:56:21.865Z,49.90
2024-02-12T16:59:24.154Z,50.97
2024-02-12T17:02:26.733Z,50.70
2024-02-12T17:05:31.388Z,51.33
2024-02-12T17:08:33.776Z,52.45
2024-02-12T17:11:35.903Z,54.83
2024-02-12T17:14:38.522Z,52.22
2024-02-12T17:17:42.399Z,52.72
2024-02-12T17:20:45.013Z,53.13
2024-02-12T17:23:47.223Z,54.30
2024-02-12T17:26:49.550Z,53.75
2024-02-12T17:29:51.835Z,54.58
2024-02-12T17:32:56.216Z,51.72
2024-02-12T17:35:58.846Z,51.55
2024-02-12T17:39:00.883Z,53.70
2024-02-12T17:42:10.688Z,55.50
2024-02-12T17:45:12.994Z,53.25
2024-02-12T17:48:15.139Z,52.38
2024-02-12T17:51:17.503Z,53.10
2024-02-12T17:54:19.805Z,55.20
2024-02-12T17:57:21.827Z,54.45
2024-02-12T18:00:24.217Z,54.10
2024-02-12T18:03:26.318Z,52.08
2024-02-12T18:06:28.559Z,55.70
2024-02-12T18:09:31.442Z,53.63
2024-02-12T18:12:33.700Z,53.88
2024-02-12T18:15:42.102Z,54.35
2024-02-12T18:18:46.908Z,56.35
2024-02-12T18:21:48.984Z,55.65
2024-02-12T18:24:51.202Z,56.80
2024-02-12T18:27:53.270Z,54.10
2024-02-12T18:30:56.046Z,53.85
2024-02-12T18:33:58.261Z,50.97
2024-02-12T18:37:00.435Z,52.17
2024-02-12T18:40:02.448Z,54.70
2024-02-12T18:43:04.836Z,53.28
2024-02-12T18:46:07.804Z,54.28
2024-02-12T18:49:09.958Z,50.78
2024-02-12T18:52:12.131Z,46.90
2024-02-12T18:55:14.525Z,4.35
2024-02-12T18:58:18.015Z,3.03
2024-02-12T19:01:20.475Z,3.72
2024-02-12T19:04:22.626Z,6.28
2024-02-12T19:07:24.666Z,6.90
2024-02-12T19:10:26.940Z,3.85
2024-02-12T19:13:28.963Z,3.65
2024-02-12T19:16:31.961Z,4.20
2024-02-12T19:19:35.272Z,6.78
2024-02-12T19:22:37.355Z,8.35
2024-02-12T19:25:39.536Z,7.85
2024-02-12T19:28:44.430Z,7.40
2024-02-12T19:31:46.531Z,4.78
2024-02-12T19:34:48.546Z,5.70
2024-02-12T19:37:50.633Z,8.48
2024-02-12T19:40:53.223Z,11.30
2024-02-12T19:43:55.278Z,8.38
2024-02-12T19:46:57.375Z,8.13
2024-02-12T19:49:59.783Z,10.38
2024-02-12T19:53:01.904Z,14.07
2024-02-12T19:56:04.052Z,11.75
2024-02-12T19:59:06.158Z,13.52
2024-02-12T20:02:10.001Z,8.85
2024-02-12T20:05:13.307Z,10.43
2024-02-12T20:08:16.089Z,13.73
2024-02-12T20:11:20.700Z,15.05
2024-02-12T20:14:23.578Z,10.00
2024-02-12T20:20:28.442Z,18.20
2024-02-12T20:23:30.551Z,15.77
2024-02-12T20:26:33.000Z,12.05
2024-02-12T20:29:35.128Z,10.68
2024-02-12T20:32:38.973Z,14.85
2024-02-12T20:35:41.103Z,17.02
2024-02-12T20:38:43.217Z,22.92
2024-02-12T20:41:45.335Z,28.80
2024-02-12T20:44:47.885Z,53.05
2024-02-12T20:47:50.583Z,54.17
2024-02-12T20:50:52.972Z,55.80
2024-02-12T20:53:55.260Z,56.13
2024-02-12T20:56:57.571Z,57.20
2024-02-12T20:59:59.598Z,56.55
2024-02-12T21:03:01.813Z,57.28
2024-02-12T21:06:04.049Z,55.58
2024-02-12T21:09:06.297Z,54.88
2024-02-12T21:16:00.253Z,55.97
2024-02-12T21:19:02.273Z,56.90
2024-02-12T21:22:04.439Z,56.70
2024-02-12T21:25:06.809Z,55.58
2024-02-12T21:28:08.744Z,57.40
2024-02-12T21:31:10.774Z,56.33
2024-02-12T21:34:12.937Z,57.25
2024-02-12T21:37:15.013Z,56.83
2024-02-12T21:40:17.120Z,54.30
2024-02-12T21:43:19.284Z,55.22
2024-02-12T21:46:21.211Z,54.97
2024-02-12T21:49:23.354Z,54.70
2024-02-12T21:52:25.399Z,54.22
2024-02-12T21:55:27.412Z,58.65
2024-02-12T21:58:29.390Z,55.67
2024-02-12T22:01:31.410Z,55.47
2024-02-12T22:04:33.515Z,55.63
2024-02-12T22:07:35.563Z,57.13
2024-02-12T22:10:37.548Z,55.13
2024-02-12T22:13:39.670Z,54.22
2024-02-12T22:16:41.934Z,56.53
2024-02-12T22:19:44.109Z,55.47
2024-02-12T22:22:48.518Z,55.90
2024-02-12T22:25:50.557Z,54.33
2024-02-12T22:28:52.534Z,56.80
2024-02-12T22:31:54.707Z,56.58
2024-02-12T22:34:58.898Z,57.35
2024-02-12T22:38:01.451Z,57.28
2024-02-12T22:41:03.570Z,55.55
2024-02-12T22:44:05.986Z,57.72
2024-02-12T22:47:08.108Z,57.97
2024-02-12T22:50:10.656Z,58.03
2024-02-12T22:53:12.717Z,56.75
2024-02-12T22:56:14.743Z,38.72
2024-02-12T22:59:19.696Z,57.20
2024-02-12T23:02:21.930Z,59.08
2024-02-12T23:05:24.043Z,56.50
2024-02-12T23:08:26.595Z,55.65
2024-02-12T23:11:29.278Z,56.03
2024-02-12T23:14:31.676Z,54.92
2024-02-12T23:17:33.942Z,55.97
2024-02-12T23:20:36.819Z,57.13
2024-02-12T23:26:41.295Z,57.60
2024-02-12T23:29:43.459Z,52.17
2024-02-12T23:32:45.814Z,53.10
2024-02-12T23:35:48.254Z,52.95
2024-02-12T23:38:50.770Z,54.38
2024-02-12T23:41:52.915Z,52.38
2024-02-12T23:44:55.081Z,53.30
2024-02-12T23:47:57.377Z,52.97
2024-02-12T23:50:59.638Z,54.15
2024-02-12T23:54:01.791Z,54.53
2024-02-12T23:57:04.131Z,54.67
